1965 Severe Tropical Cyclone DOLLY (1965056S15110)


IBTrACS version v04r00. Visit IBTrACS website for data access.
Please direct all questions to the IBTrACS Q and A forum

Storm track - Intensity - Wind Radii - Intensity Data - Source Data - All data

Summary Information

Storm ID 1965056S15110
Start Feb 25 11Z
Max Intensity 70 kt (Feb 26 12Z), 972 mb (Feb 26 11Z)
End Mar 3 23Z
ATCF IDs ,SH351965
Track status Best track data.

Storm track plot

Map of storm track

Intensity plots

Map of storm track

Radial wind information

No radial wind information for this storm


Position and Intensity Table

BASIN ISO_TIME_________ NATURE LAT LON WMO PRES BOM PRES DS824 WIND DS824 PRES NEUMANN WIND NEUMANN PRES
degrees north degrees east mb mb kts mb kts mb
SI 1965-02-25 11:00:00 NR -14.50 110.20
SI 12:00:00 TS -14.79 110.01 1000 1000 30 1000
SI 15:00:00 TS -15.23 109.55 995 37 995
SI 18:00:00 TS -15.60 109.11 990 45 990 45 992
SI 21:00:00 TS -15.87 108.68 986 52 985 50 987
SI 23:00:00 TS -16.00 108.40 983 57 981 53 984
SI 1965-02-26 00:00:00 TS -16.05 108.27 981 60 980 55 983
SI 01:00:00 TS -16.10 108.13 980 980 60 979 56 981
SI 03:00:00 TS -16.19 107.87 978 62 978 60 979
SI 05:50:00 TS -16.28 107.52 976 976 64 976 64 976
SI 06:00:00 TS -16.28 107.50 975 65 976 65 976
SI 09:00:00 TS -16.36 107.20 973 67 974 67 974
SI 11:00:00 TS -16.42 107.02 972 69 972 69 972
SI 12:00:00 TS -16.45 106.94 972 972 70 972 70 972
SI 15:00:00 TS -16.55 106.70 974 66 975 67 974
SI 18:00:00 TS -16.68 106.46 977 62 978 65 976
SI 21:00:00 TS -16.85 106.18 980 58 981 62 979
SI 23:00:00 TS -17.01 105.95 982 56 983 60 981
SI 1965-02-27 00:00:00 TS -17.11 105.80 983 55 984 60 982
SI 01:00:00 TS -17.23 105.61 984 984 55 984 59 982
SI 03:00:00 TS -17.50 105.17 984 55 984 57 983
SI 06:00:00 TS -18.00 104.58 984 55 984 55 984
SI 07:00:00 TS -18.20 104.45 984 984 55 984 55 984
SI 09:00:00 TS -18.63 104.31 984 55 984 55 984
SI 11:00:00 TS -19.08 104.29 984 55 984 55 984
SI 12:00:00 TS -19.30 104.31 984 984 55 984 55 984
SI 15:00:00 TS -19.85 104.40 984 55 984 55 984
SI 18:00:00 TS -20.28 104.59 984 55 984 55 984
SI 21:00:00 TS -20.64 104.79 984 55 984 55 984
SI 23:00:00 TS -20.81 104.93 984 55 984 55 984
SI 1965-02-28 00:00:00 TS -20.86 105.00 984 55 984 55 984
SI 01:00:00 TS -20.89 105.07 984 984 54 984 55 984
SI 03:00:00 TS -20.92 105.21 985 52 986 55 985
SI 06:00:00 TS -20.92 105.42 987 50 988 55 986
SI 09:00:00 TS -20.95 105.64 989 47 990 50 988
SI 11:00:00 TS -21.00 105.79 991 45 991 46 990
SI 12:00:00 TS -21.04 105.86 992 992 45 992 45 991
SI 15:00:00 TS -21.20 106.11 992 45 991
SI 18:00:00 TS -21.40 106.35 992 45 992
SI 21:00:00 TS -21.61 106.57 992 45 992
SI 23:00:00 TS -21.76 106.71 992 45 992
SI 1965-03-01 00:00:00 TS -21.84 106.78 992 45 992
SI 01:00:00 TS -21.91 106.85 992 992 45 992
SI 03:00:00 TS -22.06 106.99 992 45 992
SI 06:00:00 TS -22.29 107.17 992 45 992
SI 09:00:00 TS -22.54 107.33 992 45 992
SI 11:00:00 TS -22.70 107.42 992 45 992
SI 12:00:00 TS -22.78 107.46 992 992 45 992 45 992
SI 15:00:00 TS -23.01 107.57 992 45 992 45 992
SI 18:00:00 TS -23.23 107.64 992 45 992 45 992
SI 21:00:00 TS -23.45 107.70 992 45 992 45 992
SI 23:00:00 TS -23.59 107.69 992 45 992 45 992
SI 1965-03-02 00:00:00 TS -23.65 107.67 992 45 992 45 992
SI 01:00:00 TS -23.70 107.62 992 992 45 992 45 992
SI 03:00:00 TS -23.79 107.51 992 45 992 45 992
SI 06:00:00 TS -23.92 107.27 992 45 992 45 992
SI 09:00:00 TS -24.06 107.02 992 45 992 45 992
SI 11:00:00 TS -24.17 106.86 992 45 992 45 992
SI 12:00:00 TS -24.22 106.79 992 992 45 992 45 992
SI 15:00:00 TS -24.40 106.63 992 42 993 42 992
SI 18:00:00 TS -24.58 106.49 993 40 994 40 993
SI 21:00:00 TS -24.74 106.29 994 37 995 40 994
SI 23:00:00 TS -24.83 106.13 995 35 995 40 994
SI 1965-03-03 00:00:00 TS -24.86 106.01 995 35 996 40 995
SI 01:00:00 TS -24.88 105.85 996 996
SI 03:00:00 TS -25.01 105.63
SI 06:00:00 TS -25.23 105.31
SI 09:00:00 TS -25.49 104.96
SI 11:00:00 TS -25.63 104.72
SI 12:00:00 TS -25.67 104.59
SI 15:00:00 TS -25.72 104.18
SI 18:00:00 TS -25.69 103.76
SI 21:00:00 NR -25.64 103.29
SI 23:00:00 NR -25.60 103.00

Source Information

Agency Information
USA bsh351965.txt
TOKYO
CMA
HKO
NEWDELHI
REUNION
BOM IDCKMSTM0S.csv:Line=4229:DOLLY
NADI
WELLINGTON
DS824 aus_area.dat:372:DOLLY
TD9636 cons_worldwide_trop_cyclone_18710101-19891231-006:Line=7235
TD9635
NEUMANN tracks.sh:Storm=142:DOLLY:BSH3565:BM343
MLC

All available IBTrACS Data

SEASON BASIN SUBBASIN ISO_TIME_________ NATURE LAT LON WMO PRES WMO AGENCY DIST2LAND LANDFALL IFLAG USA AGENCY USA ATCF_ID USA LAT USA LON USA SSHS BOM LAT BOM LON BOM PRES BOM PRES_METHOD DS824 LAT DS824 LON DS824 STAGE DS824 WIND DS824 PRES TD9636 LAT TD9636 LON TD9636 STAGE NEUMANN LAT NEUMANN LON NEUMANN CLASS NEUMANN WIND NEUMANN PRES STORM SPEED STORM DIR
Year degrees north degrees east mb km km degrees north degrees east 1 degrees north degrees east mb degrees north degrees east kts mb degrees north degrees east degrees north degrees east kts mb kts degrees
1965 SI WA 1965-02-25 11:00:00 NR -14.50 110.20 702 702 __________O___ -1 -14.50 110.20 7 21 212
1965 SI WA 12:00:00 TS -14.79 110.01 1000 bom 739 739 O_____O__OP___ jtwc_sh SH351965 -14.70 110.00 -1 -15.00 110.00 1000 -15.00 110.00 TC 30 1000 -14.68 110.04 7 15 221
1965 SI WA 15:00:00 TS -15.23 109.55 794 794 P_____P__PP___ SH351965 -15.24 109.54 -1 -15.24 109.54 995 -15.24 109.53 TC 37 995 -15.21 109.57 7 12 228
1965 SI WA 18:00:00 TS -15.60 109.11 846 846 O_____P__PP_O_ jtwc_sh SH351965 -15.70 109.10 -1 -15.48 109.09 990 -15.47 109.06 TC 45 990 -15.67 109.11 7 -15.40 109.30 TC 45 992 11 233
1965 SI WA 21:00:00 TS -15.87 108.68 872 872 P_____P__PP_P_ SH351965 -16.02 108.68 -1 -15.71 108.62 986 -15.69 108.62 TC 52 985 -16.04 108.67 7 -15.60 108.86 TC 50 987 9 239
1965 SI WA 23:00:00 TS -16.00 108.40 884 884 P_____P__PO_P_ SH351965 -16.15 108.42 -1 -15.86 108.31 983 -15.83 108.33 TC 57 981 -16.20 108.40 7 -15.73 108.56 TC 53 984 9 245
1965 SI WA 1965-02-26 00:00:00 TS -16.05 108.27 891 890 O_____P__OP_O_ jtwc_sh SH351965 -16.20 108.30 -1 -15.93 108.16 981 -15.90 108.20 TC 60 980 -16.25 108.27 7 -15.80 108.40 TC 55 983 8 249
1965 SI WA 01:00:00 TS -16.10 108.13 980 bom 897 896 P_____O__PP_P_ SH351965 -16.24 108.17 -1 -16.00 108.00 980 -15.97 108.07 TC 60 979 -16.29 108.14 7 -15.87 108.24 TC 56 981 8 250
1965 SI WA 03:00:00 TS -16.19 107.87 903 903 P_____P__PP_P_ SH351965 -16.29 107.93 -1 -16.13 107.69 978 -16.09 107.82 TC 62 978 -16.33 107.90 7 -16.00 107.92 TC 60 979 8 253
1965 SI WA 05:50:00 TS -16.28 107.52 976 bom 926 926 P_____O__PP_P_ SH351965 -16.30 107.62 -1 -16.30 107.30 976 -16.26 107.49 TC 64 976 -16.32 107.59 7 -16.19 107.52 TC 64 976 7 255
1965 SI WA 06:00:00 TS -16.28 107.50 926 926 O_____P__PP_O_ jtwc_sh SH351965 -16.30 107.60 -1 -16.31 107.28 975 -16.27 107.47 TC 65 976 -16.32 107.58 7 -16.20 107.50 TC 65 976 6 255
1965 SI WA 09:00:00 TS -16.36 107.20 942 942 P_____P__PP_P_ SH351965 -16.28 107.28 -1 -16.46 107.02 973 -16.44 107.13 TC 67 974 -16.29 107.28 7 -16.41 107.23 TC 67 974 6 253
1965 SI WA 11:00:00 TS -16.42 107.02 958 958 P_____P__PO_P_ SH351965 -16.29 107.09 -1 -16.55 106.87 972 -16.55 106.91 TC 69 972 -16.30 107.10 2 -16.54 107.08 TC 69 972 5 250
1965 SI WA 12:00:00 TS -16.45 106.94 972 bom 959 959 O_____O__OP_O_ jtwc_sh SH351965 -16.30 107.00 -1 -16.60 106.80 972 4 -16.60 106.80 TC 70 972 -16.32 107.02 2 -16.60 107.00 TC 70 972 5 247
1965 SI WA 15:00:00 TS -16.55 106.70 968 968 P_____P__PP_P_ SH351965 -16.41 106.79 -1 -16.66 106.60 974 -16.69 106.55 TC 66 975 -16.43 106.80 2 -16.71 106.66 TC 67 974 5 244
1965 SI WA 18:00:00 TS -16.68 106.46 978 978 O_____P__PP_O_ jtwc_sh SH351965 -16.60 106.60 -1 -16.72 106.37 977 -16.78 106.28 TC 62 978 -16.58 106.60 2 -16.80 106.30 TC 65 976 6 239
1965 SI WA 21:00:00 TS -16.85 106.18 997 990 P_____P__PP_P_ SH351965 -16.80 106.38 -1 -16.83 106.03 980 -16.93 105.92 TC 58 981 -16.80 106.37 2 -16.90 106.00 TC 62 979 7 236
1965 SI WA 23:00:00 TS -17.01 105.95 1010 1004 P_____P__PO_P_ SH351965 -16.99 106.20 -1 -16.98 105.72 982 -17.10 105.60 TC 56 983 -17.00 106.20 1 -17.02 105.76 TC 60 981 9 234
1965 SI WA 1965-02-27 00:00:00 TS -17.11 105.80 1013 1013 O_____P__OP_O_ jtwc_sh SH351965 -17.10 106.10 -1 -17.08 105.52 983 -17.20 105.40 TC 55 984 -17.11 106.07 1 -17.10 105.60 TC 60 982 12 236
1965 SI WA 01:00:00 TS -17.23 105.61 984 bom 1024 1024 P_____O__PP_P_ SH351965 -17.22 105.98 -1 -17.20 105.30 984 -17.31 105.11 TC 55 984 -17.22 105.94 1 -17.19 105.38 TC 59 982 14 237
1965 SI WA 03:00:00 TS -17.50 105.17 1044 1044 P_____P__PP_P_ SH351965 -17.51 105.72 -1 -17.49 104.59 984 -17.56 104.50 TC 55 984 -17.48 105.65 1 -17.41 104.86 TC 57 983 15 232
1965 SI WA 06:00:00 TS -18.00 104.58 1069 1067 O_____P__OP_O_ jtwc_sh SH351965 -18.00 105.30 -1 -18.07 103.66 984 -18.10 103.80 TC 55 984 -17.93 105.22 1 -17.90 104.20 TC 55 984 15 224
1965 SI WA 07:00:00 TS -18.20 104.45 984 bom 1067 1065 P_____O__PP_P_ SH351965 -18.15 105.16 -1 -18.30 103.50 984 -18.35 103.72 TC 55 984 -18.09 105.09 1 -18.13 104.08 TC 55 984 14 202
1965 SI WA 09:00:00 TS -18.63 104.31 1065 1046 P_____P__PP_P_ SH351965 -18.47 104.88 -1 -18.86 103.54 984 -18.90 103.74 TC 55 984 -18.44 104.86 1 -18.66 103.96 TC 55 984 14 190
1965 SI WA 11:00:00 TS -19.08 104.29 1042 1033 P_____P__PO_P_ SH351965 -18.81 104.67 -1 -19.44 103.83 984 -19.46 103.90 TC 55 984 -18.80 104.70 7 -19.18 103.96 TC 55 984 13 182
1965 SI WA 12:00:00 TS -19.30 104.31 984 bom 1033 1003 O_____O__OP_O_ jtwc_sh SH351965 -19.00 104.60 -1 -19.70 104.00 984 -19.70 104.00 TC 55 984 -19.01 104.65 7 -19.40 104.00 TC 55 984 12 172
1965 SI WA 15:00:00 TS -19.85 104.40 1003 965 P_____P__PP_P_ SH351965 -19.65 104.57 -1 -20.18 104.28 984 -20.12 104.19 TC 55 984 -19.69 104.61 7 -19.78 104.20 TC 55 984 10 165
1965 SI WA 18:00:00 TS -20.28 104.59 965 936 O_____P__PP_O_ jtwc_sh SH351965 -20.30 104.70 -1 -20.41 104.53 984 -20.31 104.42 TC 55 984 -20.37 104.69 7 -20.00 104.50 TC 55 984 9 155
1965 SI WA 21:00:00 TS -20.64 104.79 936 920 P_____P__PP_P_ SH351965 -20.91 104.87 -1 -20.48 104.75 984 -20.37 104.67 TC 55 984 -20.93 104.86 7 -20.22 104.71 TC 55 984 7 149
1965 SI WA 23:00:00 TS -20.81 104.93 920 907 P_____P__PO_P_ SH351965 -21.21 105.02 -1 -20.49 104.88 984 -20.39 104.83 TC 55 984 -21.20 105.00 7 -20.34 104.84 TC 55 984 6 138
1965 SI WA 1965-02-28 00:00:00 TS -20.86 105.00 907 897 O_____P__OP_O_ jtwc_sh SH351965 -21.30 105.10 -1 -20.49 104.94 984 -20.40 104.90 TC 55 984 -21.26 105.07 7 -20.40 104.90 TC 55 984 5 123
1965 SI WA 01:00:00 TS -20.89 105.07 984 bom 897 887 P_____O__PP_P_ SH351965 -21.33 105.18 -1 -20.50 105.00 984 -20.45 104.96 TC 54 984 -21.29 105.14 7 -20.46 104.97 TC 55 984 4 108
1965 SI WA 03:00:00 TS -20.92 105.21 887 867 P_____P__PP_P_ SH351965 -21.27 105.34 -1 -20.59 105.10 985 -20.55 105.06 TC 52 986 -21.29 105.32 7 -20.56 105.11 TC 55 985 4 94
1965 SI WA 06:00:00 TS -20.92 105.42 867 847 O_____P__PP_O_ jtwc_sh SH351965 -21.10 105.60 -1 -20.72 105.22 987 -20.69 105.20 TC 50 988 -21.18 105.61 7 -20.70 105.30 TC 55 986 4 94
1965 SI WA 09:00:00 TS -20.95 105.64 844 824 P_____P__PP_P_ SH351965 -21.06 105.90 -1 -20.85 105.35 989 -20.84 105.34 TC 47 990 -21.05 105.91 7 -20.84 105.45 TC 50 988 4 104
1965 SI WA 11:00:00 TS -21.00 105.79 824 814 P_____P__PO_P_ SH351965 -21.08 106.10 -1 -20.95 105.45 991 -20.94 105.45 TC 45 991 -21.00 106.10 1 -20.94 105.55 TC 46 990 5 113
1965 SI WA 12:00:00 TS -21.04 105.86 992 bom 814 789 O_____O__OP_O_ jtwc_sh SH351965 -21.10 106.20 -1 -21.00 105.50 992 -21.00 105.50 TC 45 992 -21.03 106.19 1 -21.00 105.60 TC 45 991 5 124
1965 SI WA 15:00:00 TS -21.20 106.11 789 764 P_____P__PP_P_ SH351965 -21.22 106.47 -1 -21.20 105.71 992 -21.21 105.74 TC -21.15 106.45 1 -21.19 105.79 TC 45 991 6 129
1965 SI WA 18:00:00 TS -21.40 106.35 764 729 O_____P__PP_O_ jtwc_sh SH351965 -21.40 106.70 -1 -21.42 105.96 992 -21.43 106.03 TC -21.33 106.69 1 -21.40 106.00 TC 45 992 6 134
1965 SI WA 21:00:00 TS -21.61 106.57 729 717 P_____P__PP_P_ SH351965 -21.59 106.87 -1 -21.67 106.23 992 -21.68 106.33 TC -21.55 106.89 1 -21.59 106.24 TC 45 992 6 137
1965 SI WA 23:00:00 TS -21.76 106.71 715 705 P_____P__PO_P_ SH351965 -21.73 106.96 -1 -21.83 106.41 992 -21.85 106.54 TC -21.70 107.00 7 -21.73 106.41 TC 45 992 6 139
1965 SI WA 1965-03-01 00:00:00 TS -21.84 106.78 705 703 O_____P__PP_O_ jtwc_sh SH351965 -21.80 107.00 -1 -21.92 106.51 992 -21.93 106.64 TC -21.77 107.05 7 -21.80 106.50 TC 45 992 6 140
1965 SI WA 01:00:00 TS -21.91 106.85 992 bom 693 682 P_____O__PP_P_ SH351965 -21.86 107.04 -1 -22.00 106.60 992 -22.02 106.74 TC -21.84 107.08 7 -21.88 106.60 TC 45 992 6 140
1965 SI WA 03:00:00 TS -22.06 106.99 680 658 P_____P__PP_P_ SH351965 -21.99 107.12 -1 -22.17 106.80 992 -22.19 106.94 TC -21.98 107.15 7 -22.04 106.80 TC 45 992 6 142
1965 SI WA 06:00:00 TS -22.29 107.17 658 646 O_____P__PP_O_ jtwc_sh SH351965 -22.20 107.20 -1 -22.42 107.11 992 -22.44 107.21 TC -22.20 107.22 7 -22.30 107.10 TC 45 992 6 146
1965 SI WA 09:00:00 TS -22.54 107.33 646 636 P_____P__PP_P_ SH351965 -22.44 107.25 -1 -22.67 107.39 992 -22.68 107.43 TC -22.44 107.27 7 -22.56 107.39 TC 45 992 6 151
1965 SI WA 11:00:00 TS -22.70 107.42 636 624 P_____P__PO_P_ SH351965 -22.61 107.28 -1 -22.82 107.54 992 -22.83 107.55 TC -22.60 107.30 2 -22.72 107.54 TC 45 992 5 154
1965 SI WA 12:00:00 TS -22.78 107.46 992 bom 624 609 O_____O__OP_O_ jtwc_sh SH351965 -22.70 107.30 -1 -22.90 107.60 992 -22.90 107.60 TC 45 992 -22.69 107.34 2 -22.80 107.60 TC 45 992 5 156
1965 SI WA 15:00:00 TS -23.01 107.57 609 604 P_____P__PP_P_ SH351965 -22.95 107.40 -1 -23.10 107.74 992 -23.08 107.71 TC 45 992 -22.96 107.47 2 -23.01 107.68 TC 45 992 5 160
1965 SI WA 18:00:00 TS -23.23 107.64 604 589 O_____P__PP_O_ jtwc_sh SH351965 -23.20 107.50 -1 -23.28 107.81 992 -23.25 107.76 TC 45 992 -23.23 107.58 2 -23.20 107.70 TC 45 992 5 165
1965 SI WA 21:00:00 TS -23.45 107.70 587 585 P_____P__PP_P_ SH351965 -23.48 107.60 -1 -23.46 107.80 992 -23.42 107.76 TC 45 992 -23.47 107.62 2 -23.40 107.78 TC 45 992 4 175
1965 SI WA 23:00:00 TS -23.59 107.69 585 585 P_____P__PO_P_ SH351965 -23.64 107.62 -1 -23.57 107.77 992 -23.54 107.73 TC 45 992 -23.60 107.60 2 -23.53 107.81 TC 45 992 4 187
1965 SI WA 1965-03-02 00:00:00 TS -23.65 107.67 585 583 O_____P__OP_O_ jtwc_sh SH351965 -23.70 107.60 -1 -23.64 107.74 992 -23.60 107.70 TC 45 992 -23.64 107.56 2 -23.60 107.80 TC 45 992 4 207
1965 SI WA 01:00:00 TS -23.70 107.62 992 bom 593 592 P_____O__PP_P_ SH351965 -23.74 107.55 -1 -23.70 107.70 992 -23.67 107.67 TC 45 992 -23.68 107.50 2 -23.67 107.77 TC 45 992 4 226
1965 SI WA 03:00:00 TS -23.79 107.51 602 602 P_____P__PP_P_ SH351965 -23.77 107.40 -1 -23.85 107.62 992 -23.82 107.58 TC 45 992 -23.73 107.35 2 -23.80 107.68 TC 45 992 5 236
1965 SI WA 06:00:00 TS -23.92 107.27 621 621 O_____P__PP_O_ jtwc_sh SH351965 -23.80 107.10 -1 -24.07 107.44 992 -24.06 107.41 TC 45 992 -23.78 107.07 2 -24.00 107.50 TC 45 992 5 238
1965 SI WA 09:00:00 TS -24.06 107.02 649 649 P_____P__PP_P_ SH351965 -23.88 106.78 -1 -24.30 107.22 992 -24.29 107.21 TC 45 992 -23.84 106.78 2 -24.21 107.36 TC 45 992 5 236
1965 SI WA 11:00:00 TS -24.17 106.86 658 658 P_____P__PO_P_ SH351965 -23.95 106.58 -1 -24.44 107.07 992 -24.43 107.07 TC 45 992 -23.90 106.60 2 -24.34 107.26 TC 45 992 5 232
1965 SI WA 12:00:00 TS -24.22 106.79 992 bom 668 668 O_____O__OP_O_ jtwc_sh SH351965 -24.00 106.50 -1 -24.50 107.00 992 -24.50 107.00 TC 45 992 -23.95 106.55 2 -24.40 107.20 TC 45 992 5 222
1965 SI WA 15:00:00 TS -24.40 106.63 688 687 P_____P__PP_P_ SH351965 -24.18 106.38 -1 -24.67 106.79 992 -24.68 106.81 TC 42 993 -24.12 106.41 2 -24.56 107.01 TC 42 992 5 218
1965 SI WA 18:00:00 TS -24.58 106.49 698 698 O_____P__PP_O_ jtwc_sh SH351965 -24.40 106.30 -1 -24.82 106.60 993 -24.83 106.63 TC 40 994 -24.32 106.28 2 -24.70 106.80 TC 40 993 5 222
1965 SI WA 21:00:00 TS -24.74 106.29 718 717 P_____P__PP_P_ SH351965 -24.60 106.13 -1 -24.95 106.43 994 -24.97 106.46 TC 37 995 -24.55 106.13 2 -24.85 106.60 TC 40 994 5 232
1965 SI WA 23:00:00 TS -24.83 106.13 736 734 P_____P__PO_P_ SH351965 -24.73 105.98 -1 -25.02 106.31 995 -25.06 106.35 TC 35 995 -24.70 106.00 1 -24.95 106.47 TC 40 994 6 245
1965 SI WA 1965-03-03 00:00:00 TS -24.86 106.01 744 744 O_____P__OP_O_ jtwc_sh SH351965 -24.80 105.90 -1 -25.06 106.26 995 -25.10 106.30 TC 35 996 -24.78 105.92 1 -25.00 106.40 TC 40 995 8 258
1965 SI WA 01:00:00 TS -24.88 105.85 996 bom 763 763 P_____O___P___ SH351965 -24.86 105.81 -1 -25.10 106.20 996 TC -24.87 105.83 1 TC 7 246
1965 SI WA 03:00:00 TS -25.01 105.63 781 779 P_________P___ SH351965 -24.99 105.62 -1 TC -25.04 105.64 1 TC 7 235
1965 SI WA 06:00:00 TS -25.23 105.31 807 805 O_________P___ jtwc_sh SH351965 -25.20 105.30 -1 TC -25.29 105.32 1 8 232
1965 SI WA 09:00:00 TS -25.49 104.96 832 832 P_________P___ SH351965 -25.48 104.97 -1 TC -25.50 104.96 1 8 233
1965 SI WA 11:00:00 TS -25.63 104.72 861 860 P_________O___ SH351965 -25.64 104.73 -1 TC -25.60 104.70 1 8 241
1965 SI WA 12:00:00 TS -25.67 104.59 870 870 O_________P___ jtwc_sh SH351965 -25.70 104.60 -1 -25.64 104.57 1 7 259
1965 SI WA 15:00:00 TS -25.72 104.18 910 910 P_________P___ SH351965 -25.75 104.21 -1 -25.69 104.15 1 7 269
1965 SI WA 18:00:00 TS -25.69 103.76 950 950 O_________P___ jtwc_sh SH351965 -25.70 103.80 -1 -25.69 103.73 1 8 276
1965 SI WA 21:00:00 NR -25.64 103.29 1001 1001 __________P___ SH351965 -1 -25.64 103.29 1 8 278
1965 SI WA 23:00:00 NR -25.60 103.00 1031 __________O___ SH351965 -1 -25.60 103.00 1 8 279